Time;durP1;ratioP1;P1;durP2;ratioP2;P2;SDS_P1;SDS_P2;PMS_P1;PMS_P2;Temp;Humidity;BMP_temperature;BMP_pressure;BME280_temperature;BME280_humidity;BME280_pressure;Samples;Min_cycle;Max_cycle;Signal;HPM_P1;HPM_P2
2021/03/20 00:00:46;;;;;;;6.95;4.05;;;;;;;11.11;67.95;102384.50;4414491;32;20022;-78
2021/03/20 00:03:12;;;;;;;7.47;4.07;;;;;;;11.23;67.85;102384.09;4390331;32;20050;-74
2021/03/20 00:05:38;;;;;;;8.13;4.68;;;;;;;11.23;67.90;102380.47;4396849;32;20469;-75
2021/03/20 00:08:05;;;;;;;8.52;3.72;;;;;;;11.18;68.15;102386.50;4395447;32;20098;-75
2021/03/20 00:10:32;;;;;;;8.02;4.60;;;;;;;11.18;68.31;102389.34;4398258;32;20098;-75
2021/03/20 00:12:59;;;;;;;8.70;4.65;;;;;;;11.20;68.29;102390.53;4393158;32;20093;-75
2021/03/20 00:15:26;;;;;;;8.02;4.47;;;;;;;11.23;68.17;102388.94;4398217;32;20087;-75
2021/03/20 00:17:54;;;;;;;8.23;4.53;;;;;;;11.20;68.23;102382.06;4394438;32;20336;-74
2021/03/20 00:20:25;;;;;;;10.10;4.72;;;;;;;11.18;67.96;102389.34;4399830;32;20042;-75
2021/03/20 00:22:51;;;;;;;9.20;4.85;;;;;;;11.30;67.95;102388.94;4396162;32;20085;-75
2021/03/20 00:25:17;;;;;;;10.30;4.68;;;;;;;11.32;67.99;102389.34;4399050;32;20038;-74
2021/03/20 00:27:43;;;;;;;8.18;5.25;;;;;;;11.34;68.00;102389.72;4395301;32;20078;-75
2021/03/20 00:30:10;;;;;;;7.70;4.50;;;;;;;11.28;67.51;102388.50;4395287;32;20324;-75
2021/03/20 00:32:36;;;;;;;9.27;5.00;;;;;;;11.36;68.06;102376.84;4395668;32;20450;-75
2021/03/20 00:35:04;;;;;;;8.82;5.37;;;;;;;11.25;67.75;102383.69;4399761;32;20361;-75
2021/03/20 00:37:30;;;;;;;8.07;4.90;;;;;;;11.25;67.87;102373.22;4396923;32;20135;-75
2021/03/20 00:39:56;;;;;;;12.18;5.65;;;;;;;11.28;67.95;102382.87;4398038;32;20104;-75
2021/03/20 00:42:21;;;;;;;11.20;5.53;;;;;;;11.27;68.04;102378.47;4397997;32;20333;-75
2021/03/20 00:44:47;;;;;;;9.15;5.50;;;;;;;11.35;68.17;102377.25;4396080;32;20108;-75
2021/03/20 00:47:12;;;;;;;10.95;5.85;;;;;;;11.35;68.30;102378.03;4398727;32;20446;-75
2021/03/20 00:49:38;;;;;;;14.68;6.40;;;;;;;11.41;68.01;102373.59;4398532;32;20086;-75
2021/03/20 00:52:04;;;;;;;10.90;6.70;;;;;;;11.44;67.96;102374.81;4398108;32;20054;-75
2021/03/20 00:54:30;;;;;;;13.27;6.97;;;;;;;11.48;68.04;102384.88;4398060;32;20064;-75
2021/03/20 00:56:55;;;;;;;11.85;6.78;;;;;;;11.43;67.84;102373.19;4396180;32;20073;-75
2021/03/20 00:59:21;;;;;;;10.75;6.75;;;;;;;11.43;68.00;102378.84;4400141;32;20070;-74
2021/03/20 01:01:47;;;;;;;11.48;6.80;;;;;;;11.48;68.01;102370.75;4396054;32;20309;-75
2021/03/20 01:04:12;;;;;;;12.88;7.45;;;;;;;11.51;67.77;102369.94;4397793;32;20042;-75
2021/03/20 01:06:38;;;;;;;12.98;7.62;;;;;;;11.52;67.79;102382.03;4399237;32;20498;-75
2021/03/20 01:09:06;;;;;;;12.20;7.12;;;;;;;11.57;67.52;102379.59;4397282;32;20103;-75
2021/03/20 01:11:31;;;;;;;13.65;7.30;;;;;;;11.60;67.19;102378.78;4395849;32;20350;-75
2021/03/20 01:13:58;;;;;;;10.57;7.25;;;;;;;11.51;67.29;102372.00;4396633;32;20196;-75
2021/03/20 01:16:24;;;;;;;13.13;6.50;;;;;;;11.41;67.56;102381.25;4398414;32;20412;-75
2021/03/20 01:18:50;;;;;;;11.38;5.95;;;;;;;11.07;68.87;102363.16;4396523;32;20108;-75
2021/03/20 01:21:16;;;;;;;10.55;6.62;;;;;;;11.22;68.50;102379.66;4397565;32;20091;-75
2021/03/20 01:23:42;;;;;;;9.18;5.55;;;;;;;11.24;68.08;102384.91;4398303;32;20038;-74
2021/03/20 01:26:10;;;;;;;9.20;5.82;;;;;;;11.30;68.20;102386.91;4394785;32;20031;-75
2021/03/20 01:28:37;;;;;;;8.52;4.62;;;;;;;11.33;68.24;102382.47;4398673;32;20148;-75
2021/03/20 01:31:05;;;;;;;8.45;4.82;;;;;;;11.57;67.06;102373.97;4395759;32;20482;-75
2021/03/20 01:33:31;;;;;;;7.37;4.07;;;;;;;11.40;67.65;102371.19;4398603;32;20030;-75
2021/03/20 01:35:57;;;;;;;6.45;3.75;;;;;;;11.40;67.66;102374.00;4397575;32;20104;-75
2021/03/20 01:38:23;;;;;;;7.93;4.28;;;;;;;11.32;67.98;102372.44;4396784;32;20110;-75
2021/03/20 01:40:54;;;;;;;5.82;3.70;;;;;;;11.31;67.73;102371.59;4395614;32;20100;-75
2021/03/20 01:43:23;;;;;;;5.78;3.55;;;;;;;11.20;68.47;102370.03;4395371;32;20076;-75
2021/03/20 01:45:49;;;;;;;5.82;3.58;;;;;;;11.33;68.31;102374.03;4397113;32;20030;-74
2021/03/20 01:56:17;;;;;;;7.00;4.03;;;;;;;11.68;67.28;102371.16;4000593;31;15015111;-74
2021/03/20 01:58:44;;;;;;;6.18;3.53;;;;;;;11.68;67.28;102371.16;4458475;32;20995;-75
2021/03/20 02:01:17;;;;;;;6.75;3.37;;;;;;;11.30;68.26;102367.19;4451561;32;20107;-74
2021/03/20 02:03:43;;;;;;;6.82;3.75;;;;;;;11.36;68.33;102368.41;4440389;32;20059;-74
2021/03/20 02:06:10;;;;;;;6.82;3.53;;;;;;;11.35;68.30;102361.13;4441600;32;20085;-74
2021/03/20 02:08:39;;;;;;;7.62;4.37;;;;;;;11.35;68.65;102360.34;4441505;32;20322;-75
2021/03/20 02:13:58;;;;;;;6.72;4.35;;;;;;;11.78;67.83;102354.22;4005041;31;15017335;-75
2021/03/20 02:16:30;;;;;;;8.43;4.93;;;;;;;11.78;67.83;102354.22;4461872;32;20095;-75
2021/03/20 02:22:00;;;;;;;8.15;5.37;;;;;;;11.77;67.50;102346.97;3982722;32;15022400;-75
2021/03/20 02:27:58;;;;;;;10.57;7.23;;;;;;;11.12;69.68;102346.66;4000766;31;15018654;-75
2021/03/20 02:30:58;;;;;;;12.65;6.32;;;;;;;11.05;69.58;102341.03;4438797;32;20053;-75
2021/03/20 02:41:41;;;;;;;9.98;5.53;;;;;;;11.17;69.28;102360.34;3985558;32;15022268;-75
2021/03/20 02:44:18;;;;;;;6.62;4.05;;;;;;;10.73;70.10;102354.31;4442001;32;20029;-75
2021/03/20 02:46:55;;;;;;;7.60;3.17;;;;;;;10.67;69.25;102350.28;4443533;32;20060;-75
2021/03/20 02:52:21;;;;;;;6.33;3.37;;;;;;;10.43;69.42;102339.78;3997576;31;15017011;-74
2021/03/20 02:54:57;;;;;;;6.68;3.65;;;;;;;10.41;70.02;102341.38;4456277;32;20124;-75
2021/03/20 02:57:25;;;;;;;;;;;;;;;10.51;69.26;102341.41;4456420;32;20037;-74
2021/03/20 03:00:09;;;;;;;4.87;2.97;;;;;;;10.66;69.01;102345.84;4456787;32;20007;-74
2021/03/20 03:02:36;;;;;;;5.80;2.87;;;;;;;10.48;69.25;102344.19;4464122;32;20040;-74
2021/03/20 03:05:15;;;;;;;4.90;2.90;;;;;;;10.53;69.54;102341.00;4462032;32;20052;-74
2021/03/20 03:07:46;;;;;;;5.90;2.90;;;;;;;10.50;68.99;102339.81;4463924;32;20037;-75
2021/03/20 03:13:02;;;;;;;5.10;2.42;;;;;;;10.52;69.18;102340.19;3984128;32;15040912;-74
2021/03/20 03:15:33;;;;;;;5.45;2.10;;;;;;;10.37;69.62;102338.56;4436304;32;20087;-74
2021/03/20 03:18:03;;;;;;;6.95;2.33;;;;;;;10.42;68.99;102340.97;4435472;32;20174;-75
2021/03/20 03:20:35;;;;;;;3.37;2.12;;;;;;;10.46;69.24;102338.97;4435811;32;20034;-74
2021/03/20 03:23:09;;;;;;;3.95;1.92;;;;;;;10.46;68.88;102341.00;4438307;32;20346;-74
2021/03/20 03:25:39;;;;;;;3.17;1.58;;;;;;;10.59;69.17;102336.59;4435722;32;20030;-74
2021/03/20 03:28:08;;;;;;;5.25;2.17;;;;;;;10.39;69.06;102340.97;4435634;32;20060;-74
2021/03/20 03:30:34;;;;;;;4.32;2.15;;;;;;;10.46;69.45;102335.37;4433961;32;20041;-74
2021/03/20 03:33:14;;;;;;;4.12;1.70;;;;;;;10.52;69.11;102333.78;4438744;32;20086;-75
2021/03/20 03:35:48;;;;;;;2.00;1.30;;;;;;;10.41;68.42;102316.06;4435821;32;20092;-74
2021/03/20 03:41:19;;;;;;;2.83;1.10;;;;;;;10.94;67.40;102314.06;3972916;32;15022675;-75
2021/03/20 03:43:45;;;;;;;2.33;1.30;;;;;;;10.94;67.40;102314.06;4423361;32;20041;-75
2021/03/20 03:46:13;;;;;;;1.85;1.37;;;;;;;10.72;67.66;102315.28;4429013;32;20159;-75
2021/03/20 03:48:39;;;;;;;1.87;1.20;;;;;;;10.83;66.61;102313.28;4428046;32;20447;-75
2021/03/20 03:51:16;;;;;;;2.25;1.17;;;;;;;10.87;66.67;102316.91;4428921;32;20030;-75
2021/03/20 03:53:42;;;;;;;3.08;1.08;;;;;;;10.96;66.32;102306.03;4428108;32;20480;-75
2021/03/20 03:56:48;;;;;;;3.87;1.30;;;;;;;10.91;66.25;102306.41;4428424;32;20125;-75
2021/03/20 04:31:10;;;;;;;4.62;1.10;;;;;;;11.82;63.13;102311.91;3987358;32;15022939;-75
2021/03/20 04:33:43;;;;;;;1.73;1.02;;;;;;;11.42;63.90;102307.53;4436059;32;20103;-75
2021/03/20 04:36:19;;;;;;;1.92;1.05;;;;;;;11.39;64.53;102304.75;4435753;32;20492;-75
2021/03/20 04:38:45;;;;;;;;;;;;;;;11.44;64.60;102301.50;4437847;32;20470;-75
2021/03/20 04:41:13;;;;;;;1.60;1.08;;;;;;;11.46;64.69;102313.19;4435667;32;20057;-74
2021/03/20 04:43:40;;;;;;;2.97;1.30;;;;;;;11.47;64.60;102317.59;4438253;32;20432;-75
2021/03/20 04:46:17;;;;;;;1.83;1.12;;;;;;;11.43;64.32;102311.19;4434185;32;20115;-74
2021/03/20 04:48:49;;;;;;;2.95;1.20;;;;;;;11.46;64.62;102308.37;4438009;32;20022;-74
2021/03/20 04:51:34;;;;;;;2.53;1.45;;;;;;;11.45;64.81;102308.78;4433025;32;20069;-75
2021/03/20 04:54:13;;;;;;;3.65;1.60;;;;;;;11.41;64.35;102307.94;4434395;32;20060;-75
2021/03/20 04:56:47;;;;;;;2.65;1.40;;;;;;;11.44;64.42;102302.31;4435640;32;20026;-75
2021/03/20 04:59:47;;;;;;;2.78;1.45;;;;;;;11.51;64.21;102301.50;4436099;32;20480;-74
2021/03/20 05:02:22;;;;;;;2.20;1.33;;;;;;;11.53;64.51;102307.53;4424113;32;20044;-75
2021/03/20 05:04:50;;;;;;;5.28;2.70;;;;;;;11.34;64.20;102308.78;4418984;32;20070;-74
2021/03/20 05:07:18;;;;;;;2.62;1.73;;;;;;;11.38;64.75;102309.56;4423953;32;20029;-74
2021/03/20 05:09:44;;;;;;;3.53;1.83;;;;;;;11.06;65.59;102308.84;4420975;32;20049;-75
2021/03/20 05:15:20;;;;;;;2.83;1.27;;;;;;;11.58;64.64;102291.00;3986115;32;15024423;-74
2021/03/20 05:17:46;;;;;;;2.70;1.60;;;;;;;11.58;64.64;102291.00;4432354;32;20068;-74
2021/03/20 05:20:11;;;;;;;2.03;1.27;;;;;;;11.29;65.49;102294.31;4437544;32;20407;-74
2021/03/20 05:22:37;;;;;;;2.65;1.25;;;;;;;11.29;65.51;102297.13;4434865;32;20077;-74
2021/03/20 05:25:04;;;;;;;2.58;1.50;;;;;;;11.31;65.62;102294.69;4437610;32;20108;-74
2021/03/20 05:27:33;;;;;;;2.10;1.25;;;;;;;11.40;65.60;102301.53;4435651;32;20340;-75
2021/03/20 05:29:59;;;;;;;2.30;1.20;;;;;;;11.51;65.42;102305.09;4436665;32;20022;-75
2021/03/20 05:32:28;;;;;;;2.25;1.50;;;;;;;11.58;65.12;102295.84;4433725;32;20092;-75
2021/03/20 05:34:56;;;;;;;3.17;1.52;;;;;;;11.66;64.87;102291.81;4433059;32;20030;-75
2021/03/20 05:37:27;;;;;;;4.82;1.75;;;;;;;11.65;64.79;102287.37;4433923;32;20471;-75
2021/03/20 05:39:53;;;;;;;3.45;1.58;;;;;;;11.61;64.40;102286.56;4436856;32;20095;-74
2021/03/20 05:42:29;;;;;;;3.40;1.95;;;;;;;11.70;64.23;102284.94;4435192;32;20041;-74
2021/03/20 06:02:00;;;;;;;3.35;2.17;;;;;;;12.35;63.18;102294.66;3999244;31;15017768;-74
2021/03/20 06:04:48;;;;;;;4.15;1.98;;;;;;;12.35;63.18;102294.66;4454628;32;20045;-74
2021/03/20 06:10:26;;;;;;;5.07;2.83;;;;;;;12.36;62.91;102299.91;3983478;32;15022838;-74
2021/03/20 06:16:23;;;;;;;3.28;2.10;;;;;;;12.04;64.23;102310.56;3988206;32;15024762;-74
2021/03/20 06:27:27;;;;;;;2.65;1.58;;;;;;;11.68;65.14;102295.81;4002756;31;15015365;-75
2021/03/20 06:30:01;;;;;;;3.45;1.70;;;;;;;11.61;65.36;102298.66;4448509;32;20104;-75
2021/03/20 06:32:35;;;;;;;4.03;2.08;;;;;;;11.53;66.20;102302.69;4453320;32;20071;-75
2021/03/20 06:35:25;;;;;;;3.70;1.60;;;;;;;11.53;65.82;102297.06;4450725;32;20022;-75
2021/03/20 06:37:56;;;;;;;4.93;1.65;;;;;;;11.57;65.82;102297.06;4450625;32;20037;-75
2021/03/20 06:43:08;;;;;;;2.67;1.37;;;;;;;12.25;64.48;102301.19;3953365;32;15022986;-75
2021/03/20 06:45:34;;;;;;;3.78;1.48;;;;;;;12.25;64.48;102301.19;4402652;32;20091;-74
2021/03/20 06:48:11;;;;;;;2.37;1.40;;;;;;;11.87;64.91;102297.34;4408888;32;20031;-75
2021/03/20 06:50:44;;;;;;;6.18;1.40;;;;;;;11.94;64.88;102298.13;4406757;32;20022;-74
2021/03/20 06:53:13;;;;;;;3.90;1.37;;;;;;;11.99;64.58;102299.72;4405485;32;20449;-74
2021/03/20 06:55:43;;;;;;;2.33;1.48;;;;;;;11.91;64.63;102290.47;4401955;32;20619;-75
2021/03/20 06:58:33;;;;;;;3.22;1.08;;;;;;;12.00;64.91;102298.50;4403586;32;20027;-74
2021/03/20 07:01:09;;;;;;;3.53;1.20;;;;;;;12.08;64.71;102292.41;4404014;32;20565;-74
2021/03/20 07:11:32;;;;;;;2.40;1.20;;;;;;;12.61;62.89;102292.03;3987359;32;15022604;-75
2021/03/20 07:14:01;;;;;;;1.87;1.00;;;;;;;12.61;62.89;102292.03;4440057;32;20469;-74
2021/03/20 07:16:29;;;;;;;1.87;0.90;;;;;;;12.16;64.19;102281.91;4437789;32;20086;-74
2021/03/20 07:19:11;;;;;;;2.45;0.80;;;;;;;12.20;63.23;102281.84;4436879;32;20056;-74
2021/03/20 07:21:42;;;;;;;1.50;1.00;;;;;;;12.03;63.56;102295.66;4436114;32;20099;-74
2021/03/20 07:29:47;;;;;;;1.65;0.90;;;;;;;12.76;62.10;102282.25;3984674;32;15026068;-75
2021/03/20 07:38:13;;;;;;;1.08;0.70;;;;;;;12.75;62.15;102282.66;3999113;31;15020164;-75
2021/03/20 07:40:39;;;;;;;3.50;0.80;;;;;;;12.75;62.15;102282.66;4456368;32;20088;-75
2021/03/20 07:43:21;;;;;;;5.05;1.52;;;;;;;12.38;62.77;102271.25;4459290;32;20829;-75
2021/03/20 07:46:04;;;;;;;2.37;1.17;;;;;;;12.46;62.89;102276.44;4457710;32;20041;-75
2021/03/20 07:48:29;;;;;;;1.25;0.70;;;;;;;12.53;62.68;102269.94;4456137;32;20053;-75
2021/03/20 07:51:03;;;;;;;3.60;0.90;;;;;;;12.47;62.63;102278.06;4457680;32;20114;-75
2021/03/20 07:53:29;;;;;;;2.55;0.80;;;;;;;12.52;62.46;102283.25;4456355;32;20072;-75
2021/03/20 07:56:04;;;;;;;1.67;0.75;;;;;;;12.54;62.49;102277.97;4454818;32;20102;-75
2021/03/20 08:01:08;;;;;;;1.42;0.80;;;;;;;13.20;61.50;102289.94;3957149;32;15722645;-75
2021/03/20 08:03:50;;;;;;;3.90;1.75;;;;;;;13.20;61.50;102289.94;4433541;32;20130;-75
2021/03/20 08:06:19;;;;;;;0.32;0.32;;;;;;;12.86;61.87;102287.00;4435651;32;20026;-75
2021/03/20 08:08:45;;;;;;;0.82;0.60;;;;;;;12.84;61.19;102278.16;4436104;32;20030;-75
2021/03/20 08:11:32;;;;;;;3.33;1.00;;;;;;;13.04;60.86;102279.19;4434536;32;20056;-75
2021/03/20 08:14:06;;;;;;;2.03;0.75;;;;;;;13.11;60.78;102279.16;4431157;32;20030;-75
2021/03/20 08:16:33;;;;;;;1.85;1.05;;;;;;;13.16;60.65;102289.19;4436351;32;20104;-75
2021/03/20 08:18:59;;;;;;;4.30;1.10;;;;;;;13.10;60.74;102280.34;4433549;32;20068;-75
2021/03/20 08:29:59;;;;;;;3.10;0.77;;;;;;;13.88;58.22;102283.91;4000330;31;15016356;-75
2021/03/20 08:38:39;;;;;;;1.37;0.70;;;;;;;13.48;59.26;102281.16;4000830;31;15015084;-76
2021/03/20 08:41:19;;;;;;;1.40;0.70;;;;;;;13.33;59.60;102283.34;4453175;32;20120;-75
2021/03/20 09:03:48;;;;;;;5.90;1.23;;;;;;;14.92;55.39;102290.44;3997116;31;15016758;-75
2021/03/20 09:06:35;;;;;;;10.27;2.10;;;;;;;14.92;55.39;102290.44;4450844;32;20037;-76
2021/03/20 09:09:09;;;;;;;4.25;1.42;;;;;;;14.54;56.65;102280.56;4450905;32;20087;-76
2021/03/20 09:11:41;;;;;;;2.75;1.20;;;;;;;14.53;56.08;102276.91;4439676;32;20073;-75
2021/03/20 09:14:17;;;;;;;4.60;0.80;;;;;;;14.64;55.58;102277.53;4453837;32;20076;-76
2021/03/20 09:16:49;;;;;;;3.40;1.10;;;;;;;14.62;55.60;102273.53;4455366;32;20081;-76
2021/03/20 09:19:21;;;;;;;15.23;1.35;;;;;;;14.50;56.42;102277.75;4451161;32;20102;-76
2021/03/20 09:21:48;;;;;;;1.92;1.05;;;;;;;14.72;55.51;102278.19;4449745;32;20081;-76
2021/03/20 09:24:21;;;;;;;8.00;1.80;;;;;;;14.80;55.34;102274.03;4452986;32;20045;-76
2021/03/20 09:26:49;;;;;;;4.10;1.00;;;;;;;14.98;55.29;102274.53;4453182;32;20075;-75
2021/03/20 09:40:14;;;;;;;7.37;2.20;;;;;;;15.34;54.68;102279.09;4002277;31;15012998;-76
2021/03/20 09:42:40;;;;;;;6.30;2.95;;;;;;;15.35;54.68;102282.75;4469755;32;20102;-76
2021/03/20 10:01:07;;;;;;;9.40;4.55;;;;;;;16.56;52.71;102259.84;3985154;32;15023488;-75
2021/03/20 10:22:30;;;;;;;7.70;5.47;;;;;;;17.59;49.34;102236.78;3984103;32;15023625;-77
2021/03/20 10:24:56;;;;;;;11.10;5.45;;;;;;;17.59;49.34;102236.78;4441811;32;20084;-75
2021/03/20 10:27:39;;;;;;;7.93;5.85;;;;;;;17.12;49.79;102236.44;4442933;32;20060;-75
2021/03/20 10:35:40;;;;;;;7.35;4.40;;;;;;;17.47;49.92;102221.25;4010245;31;15015192;-75
2021/03/20 10:38:27;;;;;;;5.95;4.68;;;;;;;17.47;49.92;102221.25;4464637;32;20447;-75
2021/03/20 10:44:00;;;;;;;7.97;4.87;;;;;;;17.68;49.76;102216.97;3985473;32;15023101;-76
2021/03/20 10:46:35;;;;;;;9.57;5.82;;;;;;;17.68;49.76;102216.97;4435909;32;20152;-76
2021/03/20 10:49:12;;;;;;;10.43;6.10;;;;;;;16.97;51.57;102226.69;4437709;32;20147;-76
2021/03/20 10:51:40;;;;;;;12.75;6.43;;;;;;;16.59;51.93;102224.84;4443244;32;20069;-76
2021/03/20 10:56:51;;;;;;;11.48;7.35;;;;;;;16.80;51.92;102215.78;3986637;32;15022297;-76
2021/03/20 10:59:35;;;;;;;12.88;8.25;;;;;;;16.80;51.65;102221.47;4440532;32;20052;-76
2021/03/20 11:13:07;;;;;;;15.02;8.18;;;;;;;17.53;50.30;102219.44;3986581;32;15024370;-76
2021/03/20 11:15:37;;;;;;;14.95;9.00;;;;;;;17.53;50.30;102219.44;4440503;32;21584;-76
2021/03/20 11:18:13;;;;;;;16.42;10.50;;;;;;;16.87;51.58;102207.88;4442304;32;20108;-76
2021/03/20 11:20:42;;;;;;;19.17;11.35;;;;;;;16.65;52.47;102201.16;4442092;32;20181;-76
2021/03/20 11:23:26;;;;;;;16.20;11.12;;;;;;;16.24;53.38;102209.47;4442510;32;20074;-76
2021/03/20 11:25:52;;;;;;;20.73;12.10;;;;;;;16.16;54.19;102207.22;4442317;32;20093;-76
2021/03/20 11:28:33;;;;;;;20.05;11.93;;;;;;;16.08;54.63;102203.78;4440275;32;20116;-76
2021/03/20 11:31:01;;;;;;;21.08;12.90;;;;;;;15.91;54.99;102193.59;4439413;32;20089;-76
2021/03/20 11:33:31;;;;;;;17.60;11.98;;;;;;;16.07;55.44;102202.16;4440227;32;20399;-76
2021/03/20 11:36:00;;;;;;;18.67;11.68;;;;;;;16.23;54.66;102187.97;4440324;32;20105;-76
2021/03/20 11:38:27;;;;;;;23.77;13.23;;;;;;;16.64;53.39;102184.53;4439745;32;20021;-76
2021/03/20 11:48:54;;;;;;;23.05;13.57;;;;;;;16.12;55.38;102178.09;3984404;32;15025480;-76
2021/03/20 11:51:27;;;;;;;23.52;13.73;;;;;;;16.12;55.38;102178.09;4437040;32;20126;-76
2021/03/20 11:53:58;;;;;;;26.77;14.82;;;;;;;15.74;56.15;102169.28;4437555;32;20335;-76
2021/03/20 11:56:28;;;;;;;25.80;14.27;;;;;;;15.87;56.02;102170.19;4433538;32;20076;-76
2021/03/20 11:58:57;;;;;;;27.60;15.13;;;;;;;15.99;55.62;102161.75;4433008;32;20103;-76
2021/03/20 12:06:45;;;;;;;27.40;13.73;;;;;;;16.06;55.58;102166.47;4000859;31;15019890;-76
2021/03/20 12:20:20;;;;;;;26.35;15.43;;;;;;;16.04;56.03;102157.59;3983626;32;15022695;-76
2021/03/20 12:22:48;;;;;;;29.37;14.68;;;;;;;16.04;56.03;102157.59;4436039;32;20067;-75
2021/03/20 12:28:44;;;;;;;22.62;14.02;;;;;;;16.21;55.01;102152.72;3974186;32;15022931;-76
2021/03/20 12:39:01;;;;;;;22.75;13.15;;;;;;;15.72;57.03;102146.19;3971266;32;15023550;-76
2021/03/20 12:41:32;;;;;;;25.65;13.77;;;;;;;15.72;57.03;102146.19;4419987;32;20017;-76
2021/03/20 12:44:23;;;;;;;23.35;13.60;;;;;;;15.16;57.78;102134.00;4418626;32;20018;-76
2021/03/20 12:46:54;;;;;;;19.95;12.32;;;;;;;15.50;57.06;102139.41;4421426;32;20219;-76
2021/03/20 12:49:22;;;;;;;22.52;13.30;;;;;;;15.96;56.29;102122.09;4420657;32;20342;-76
2021/03/20 12:51:53;;;;;;;21.17;11.77;;;;;;;16.04;55.19;102123.50;4422830;32;20395;-76
2021/03/20 12:54:23;;;;;;;22.85;12.20;;;;;;;16.02;55.48;102115.44;4417367;32;20177;-76
2021/03/20 12:56:49;;;;;;;24.20;11.30;;;;;;;16.31;54.90;102109.84;4420595;32;20090;-76
2021/03/20 12:59:14;;;;;;;21.60;10.40;;;;;;;16.51;53.90;102101.25;4421669;32;20476;-76
2021/03/20 13:01:40;;;;;;;17.45;10.32;;;;;;;16.11;55.11;102097.81;4413209;32;20089;-76
2021/03/20 13:04:06;;;;;;;17.08;11.15;;;;;;;15.75;56.00;102091.37;4406793;32;20169;-76
2021/03/20 13:06:32;;;;;;;15.77;9.38;;;;;;;15.83;55.99;102092.78;4405701;32;20022;-76
2021/03/20 13:08:57;;;;;;;17.23;8.88;;;;;;;15.70;56.30;102081.34;4405531;32;20129;-76
2021/03/20 13:11:27;;;;;;;21.62;9.05;;;;;;;15.46;57.06;102076.25;4405909;32;20049;-76
2021/03/20 13:13:53;;;;;;;16.85;8.55;;;;;;;15.39;57.39;102080.06;4403438;32;20050;-76
2021/03/20 13:16:19;;;;;;;16.83;8.70;;;;;;;15.51;57.22;102078.56;4406512;32;20097;-76
2021/03/20 13:18:44;;;;;;;21.40;10.73;;;;;;;15.81;56.44;102069.75;4405138;32;20065;-76
2021/03/20 13:21:11;;;;;;;19.20;8.85;;;;;;;16.02;56.21;102072.84;4409128;32;20041;-76
2021/03/20 13:23:37;;;;;;;15.85;8.50;;;;;;;16.14;54.95;102085.53;4407909;32;20123;-76
2021/03/20 13:26:03;;;;;;;15.45;8.38;;;;;;;16.24;54.02;102063.78;4408857;32;20030;-76
2021/03/20 13:28:28;;;;;;;20.17;9.80;;;;;;;15.97;55.25;102075.41;4407720;32;20084;-76
2021/03/20 13:30:54;;;;;;;20.20;9.45;;;;;;;15.75;55.99;102075.16;4407582;32;20453;-76
2021/03/20 13:33:20;;;;;;;14.48;8.50;;;;;;;15.64;56.65;102070.97;4407934;32;20128;-76
2021/03/20 13:35:46;;;;;;;17.12;8.50;;;;;;;15.51;57.26;102067.22;4407214;32;20053;-76
2021/03/20 13:38:12;;;;;;;14.75;8.30;;;;;;;15.64;56.71;102063.25;4416426;32;20528;-76
2021/03/20 13:40:40;;;;;;;16.35;7.68;;;;;;;15.96;56.08;102074.63;4420014;32;20081;-76
2021/03/20 13:43:07;;;;;;;20.58;10.02;;;;;;;15.73;56.15;102065.47;4424167;32;20467;-75
2021/03/20 13:45:34;;;;;;;15.40;7.97;;;;;;;15.63;56.29;102072.19;4418551;32;20119;-76
2021/03/20 13:48:03;;;;;;;10.00;7.12;;;;;;;15.68;55.99;102058.28;4422785;32;20153;-76
2021/03/20 13:50:34;;;;;;;10.45;5.90;;;;;;;15.80;55.87;102063.25;4399791;32;20121;-75
2021/03/20 13:53:04;;;;;;;12.43;6.25;;;;;;;15.95;55.25;102064.50;4400627;32;20121;-76
2021/03/20 13:55:29;;;;;;;8.60;5.57;;;;;;;15.92;55.13;102058.91;4412067;32;20090;-76
2021/03/20 13:57:55;;;;;;;11.80;5.97;;;;;;;15.88;55.14;102073.22;4408942;32;20023;-76
2021/03/20 14:00:22;;;;;;;11.60;7.10;;;;;;;15.74;55.62;102064.25;4412121;32;21149;-76
2021/03/20 14:02:47;;;;;;;11.05;6.35;;;;;;;15.66;55.63;102059.97;4410680;32;20113;-76
2021/03/20 14:05:13;;;;;;;13.43;6.82;;;;;;;15.62;55.92;102060.03;4412622;32;20045;-76
2021/03/20 14:07:42;;;;;;;10.20;6.30;;;;;;;15.56;56.40;102063.87;4409975;32;20404;-76
2021/03/20 14:10:11;;;;;;;10.93;6.57;;;;;;;15.57;56.53;102063.44;4409067;32;20114;-76
2021/03/20 14:12:37;;;;;;;14.52;7.40;;;;;;;15.07;57.37;102051.56;4412924;32;20073;-76
2021/03/20 14:15:03;;;;;;;15.52;7.05;;;;;;;14.95;57.52;102057.91;4411180;32;20066;-76
2021/03/20 14:17:29;;;;;;;10.70;6.35;;;;;;;15.01;57.15;102058.19;4412970;32;20111;-76
2021/03/20 14:19:55;;;;;;;12.60;7.00;;;;;;;15.35;56.44;102050.13;4408531;32;20033;-76
2021/03/20 14:22:21;;;;;;;15.38;8.50;;;;;;;15.38;56.07;102050.09;4411451;32;20041;-76
2021/03/20 14:24:47;;;;;;;15.68;7.40;;;;;;;15.55;55.53;102028.19;4409139;32;20066;-76
2021/03/20 14:27:14;;;;;;;13.52;7.87;;;;;;;16.09;54.55;102036.97;4410488;32;20084;-77
2021/03/20 14:29:40;;;;;;;14.63;7.45;;;;;;;16.01;54.20;102055.47;4410690;32;20042;-77
2021/03/20 14:32:07;;;;;;;11.93;7.85;;;;;;;15.62;55.40;102045.84;4411417;32;20049;-76
2021/03/20 14:34:33;;;;;;;11.18;7.70;;;;;;;15.28;56.59;102036.91;4409334;32;20026;-76
2021/03/20 14:36:59;;;;;;;14.40;8.25;;;;;;;15.23;56.71;102033.78;4409315;32;20197;-76
2021/03/20 14:39:25;;;;;;;16.77;8.55;;;;;;;15.08;57.06;102027.66;4407722;32;20111;-76
2021/03/20 14:41:50;;;;;;;17.50;8.65;;;;;;;15.28;56.38;102030.47;4412969;32;20055;-76
2021/03/20 14:44:17;;;;;;;17.80;9.00;;;;;;;15.12;57.08;102019.84;4413669;32;20038;-75
2021/03/20 14:46:43;;;;;;;14.45;8.55;;;;;;;15.09;56.99;102036.94;4410885;32;20035;-76
2021/03/20 14:49:09;;;;;;;14.10;8.45;;;;;;;14.71;58.26;102032.91;4411730;32;20033;-76
2021/03/20 14:51:36;;;;;;;14.73;8.40;;;;;;;14.60;58.14;102030.28;4410534;32;20069;-77
2021/03/20 14:54:02;;;;;;;14.80;8.38;;;;;;;14.94;57.52;102035.66;4411189;32;20069;-77
2021/03/20 14:56:28;;;;;;;17.25;9.77;;;;;;;15.15;56.99;102024.66;4411945;32;20119;-76
2021/03/20 14:58:53;;;;;;;14.02;8.15;;;;;;;15.03;57.48;102031.00;4406273;32;20073;-75
2021/03/20 15:01:19;;;;;;;15.77;7.90;;;;;;;15.07;57.16;102030.91;4404956;32;20041;-76
2021/03/20 15:03:46;;;;;;;16.08;7.90;;;;;;;15.10;57.21;102022.31;4410977;32;20604;-76
2021/03/20 15:06:12;;;;;;;14.93;8.18;;;;;;;15.25;56.83;102017.16;4412318;32;20021;-76
2021/03/20 15:08:39;;;;;;;14.85;8.35;;;;;;;15.45;56.31;102018.72;4409108;32;20049;-76
2021/03/20 15:11:05;;;;;;;12.85;7.72;;;;;;;15.29;56.72;102013.00;4410597;32;20080;-74
2021/03/20 15:13:32;;;;;;;16.73;8.93;;;;;;;14.98;57.32;102010.88;4408919;32;20065;-77
2021/03/20 15:15:59;;;;;;;19.20;8.95;;;;;;;14.56;58.77;102001.22;4411282;32;20122;-75
2021/03/20 15:18:29;;;;;;;16.00;8.82;;;;;;;14.78;58.29;101998.75;4410749;32;20131;-75
2021/03/20 15:20:56;;;;;;;15.30;8.40;;;;;;;14.74;58.42;102003.69;4407183;32;20415;-75
2021/03/20 15:23:26;;;;;;;14.50;8.63;;;;;;;14.65;58.33;101992.94;4412752;32;20065;-75
2021/03/20 15:25:53;;;;;;;12.55;7.62;;;;;;;14.66;58.32;101988.09;4408882;32;20034;-75
2021/03/20 15:28:18;;;;;;;19.40;8.43;;;;;;;14.87;57.58;101977.09;4411169;32;20103;-75
2021/03/20 15:30:45;;;;;;;13.20;7.82;;;;;;;15.20;56.65;101978.75;4411522;32;20073;-75
2021/03/20 15:33:12;;;;;;;11.25;6.72;;;;;;;15.21;55.48;101988.84;4411267;32;20818;-75
2021/03/20 15:35:37;;;;;;;12.20;7.87;;;;;;;14.91;55.97;101994.03;4409892;32;20077;-75
2021/03/20 15:38:04;;;;;;;11.15;6.82;;;;;;;14.27;57.91;101973.91;4398221;32;20116;-75
2021/03/20 15:40:36;;;;;;;10.88;7.32;;;;;;;14.46;57.79;101962.59;4409193;32;20434;-75
2021/03/20 15:43:04;;;;;;;12.18;7.78;;;;;;;14.30;57.77;101973.81;4411671;32;20078;-75
2021/03/20 15:45:31;;;;;;;15.05;8.45;;;;;;;14.06;58.58;101966.59;4413952;32;20077;-75
2021/03/20 15:47:57;;;;;;;16.70;8.93;;;;;;;14.08;58.97;101984.75;4412103;32;20070;-75
2021/03/20 15:50:31;;;;;;;16.02;8.70;;;;;;;13.95;59.33;101951.84;4409476;32;20064;-75
2021/03/20 15:52:58;;;;;;;14.83;9.00;;;;;;;14.02;58.86;101957.34;4407545;32;20429;-75
2021/03/20 15:55:27;;;;;;;15.43;8.73;;;;;;;14.04;59.15;101958.53;4410689;32;20379;-75